Time;durP1;ratioP1;P1;durP2;ratioP2;P2;SDS_P1;SDS_P2;PMS_P1;PMS_P2;Temp;Humidity;BMP_temperature;BMP_pressure;BME280_temperature;BME280_humidity;BME280_pressure;Samples;Min_cycle;Max_cycle;Signal;HPM_P1;HPM_P2
2023/07/25 00:01:52;;;;;;;3.38;2.25;;;;;20.70;97547.00;;;;5113522;27;20490;-61
2023/07/25 00:04:19;;;;;;;2.45;2.08;;;;;20.60;97551.00;;;;5113438;28;20047;-60
2023/07/25 00:06:45;;;;;;;2.80;2.25;;;;;20.50;97548.00;;;;5113358;28;20122;-60
2023/07/25 00:09:12;;;;;;;2.92;2.17;;;;;20.50;97546.00;;;;5113053;28;20399;-60
2023/07/25 00:11:39;;;;;;;2.13;1.80;;;;;20.40;97556.00;;;;5113165;27;20131;-61
2023/07/25 00:14:05;;;;;;;5.60;2.22;;;;;20.40;97553.00;;;;5113239;28;20577;-61
2023/07/25 00:16:32;;;;;;;3.63;1.70;;;;;20.40;97547.00;;;;5113248;28;20067;-61
2023/07/25 00:18:59;;;;;;;3.22;2.25;;;;;20.30;97550.00;;;;5112678;28;20122;-62
2023/07/25 00:21:25;;;;;;;2.58;2.00;;;;;20.30;97538.00;;;;5112931;28;20127;-61
2023/07/25 00:23:52;;;;;;;1.65;1.52;;;;;20.30;97538.00;;;;5113123;28;20097;-61
2023/07/25 00:26:18;;;;;;;1.85;1.65;;;;;20.20;97537.00;;;;5111579;28;20043;-61
2023/07/25 00:28:45;;;;;;;2.17;1.80;;;;;20.20;97540.00;;;;5113071;28;20464;-62
2023/07/25 00:31:12;;;;;;;3.00;1.83;;;;;20.20;97543.00;;;;5111463;28;20044;-61
2023/07/25 00:33:38;;;;;;;2.10;1.67;;;;;20.20;97539.00;;;;5111636;28;20138;-61
2023/07/25 00:36:05;;;;;;;3.42;2.17;;;;;20.20;97545.00;;;;5111849;28;20496;-61
2023/07/25 00:38:31;;;;;;;2.42;1.85;;;;;20.20;97544.00;;;;5111917;27;20073;-61
2023/07/25 00:40:58;;;;;;;2.13;1.92;;;;;20.30;97544.00;;;;5112625;28;20063;-61
2023/07/25 00:43:24;;;;;;;2.63;1.90;;;;;20.30;97545.00;;;;5112733;28;20043;-61
2023/07/25 00:45:51;;;;;;;4.43;2.15;;;;;20.40;97547.00;;;;5111596;28;20073;-61
2023/07/25 00:48:18;;;;;;;1.90;1.67;;;;;20.40;97545.00;;;;5112809;28;20035;-61
2023/07/25 00:50:45;;;;;;;4.90;1.92;;;;;20.40;97550.00;;;;5111395;28;20047;-62
2023/07/25 00:53:14;;;;;;;2.80;2.30;;;;;20.40;97542.00;;;;5111357;28;20051;-61
2023/07/25 00:55:41;;;;;;;2.33;2.10;;;;;20.20;97544.00;;;;5111429;28;20442;-62
2023/07/25 00:58:07;;;;;;;3.15;2.15;;;;;20.20;97542.00;;;;5112952;28;20407;-62
2023/07/25 01:00:38;;;;;;;2.15;1.67;;;;;20.20;97541.00;;;;5111188;28;20131;-61
2023/07/25 01:03:05;;;;;;;1.92;1.60;;;;;20.20;97533.00;;;;5111372;28;20436;-61
2023/07/25 01:05:36;;;;;;;3.65;2.42;;;;;20.20;97531.00;;;;5111208;28;20043;-62
2023/07/25 01:08:03;;;;;;;2.65;1.77;;;;;20.10;97526.00;;;;5112495;28;20058;-62
2023/07/25 01:10:32;;;;;;;3.83;1.98;;;;;20.10;97521.00;;;;5112255;28;20063;-61
2023/07/25 01:12:58;;;;;;;2.28;2.00;;;;;20.10;97522.00;;;;5112645;28;20096;-62
2023/07/25 01:15:26;;;;;;;2.40;2.03;;;;;20.10;97526.00;;;;5111149;28;20115;-62
2023/07/25 01:17:53;;;;;;;2.65;1.73;;;;;20.00;97532.00;;;;5111110;28;20050;-62
2023/07/25 01:20:21;;;;;;;2.70;2.00;;;;;20.00;97535.00;;;;5112266;28;20047;-62
2023/07/25 01:22:48;;;;;;;4.20;2.15;;;;;20.00;97532.00;;;;5110969;28;20051;-62
2023/07/25 01:25:15;;;;;;;3.20;2.40;;;;;20.10;97529.00;;;;5112362;28;20035;-62
2023/07/25 01:27:42;;;;;;;3.08;1.90;;;;;20.10;97523.00;;;;5112194;28;20067;-62
2023/07/25 01:30:09;;;;;;;3.28;2.10;;;;;20.10;97525.00;;;;5114415;28;20123;-62
2023/07/25 01:32:35;;;;;;;3.53;2.20;;;;;20.10;97517.00;;;;5098090;28;20050;-62
2023/07/25 01:35:02;;;;;;;3.72;1.95;;;;;20.00;97522.00;;;;5116289;28;20044;-62
2023/07/25 01:37:29;;;;;;;2.60;1.90;;;;;20.00;97523.00;;;;5116379;28;20114;-62
2023/07/25 01:39:56;;;;;;;2.97;2.15;;;;;20.00;97515.00;;;;5116047;28;20046;-62
2023/07/25 01:42:22;;;;;;;2.20;2.00;;;;;19.90;97505.00;;;;5116183;28;20408;-62
2023/07/25 01:44:49;;;;;;;2.83;2.22;;;;;19.90;97511.00;;;;5116142;28;20073;-62
2023/07/25 01:47:15;;;;;;;2.78;2.25;;;;;19.80;97510.00;;;;5116016;28;20122;-63
2023/07/25 01:49:42;;;;;;;1.85;1.60;;;;;19.80;97518.00;;;;5116012;28;20456;-62
2023/07/25 01:52:09;;;;;;;2.60;2.08;;;;;19.80;97518.00;;;;5116478;28;20455;-62
2023/07/25 01:54:35;;;;;;;2.20;1.85;;;;;19.90;97519.00;;;;5098047;28;20044;-61
2023/07/25 01:57:03;;;;;;;2.17;1.88;;;;;19.80;97509.00;;;;5116153;28;20040;-62
2023/07/25 01:59:29;;;;;;;2.80;2.00;;;;;19.90;97505.00;;;;5114597;28;20138;-62
2023/07/25 02:01:56;;;;;;;2.22;1.98;;;;;19.90;97513.00;;;;5114515;28;20442;-62
2023/07/25 02:04:22;;;;;;;2.85;2.10;;;;;19.90;97503.00;;;;5115834;28;20048;-61
2023/07/25 02:06:49;;;;;;;3.50;2.40;;;;;20.00;97514.00;;;;5114265;28;20047;-61
2023/07/25 02:09:15;;;;;;;2.15;1.95;;;;;20.00;97515.00;;;;5114063;28;20051;-61
2023/07/25 02:11:42;;;;;;;3.58;2.20;;;;;20.10;97502.00;;;;5115491;28;20040;-61
2023/07/25 02:14:09;;;;;;;3.75;2.63;;;;;20.10;97497.00;;;;5114269;28;20044;-61
2023/07/25 02:16:37;;;;;;;3.65;2.33;;;;;20.10;97498.00;;;;5114102;28;20049;-61
2023/07/25 02:19:04;;;;;;;2.60;2.03;;;;;20.00;97495.00;;;;5114103;28;20143;-61
2023/07/25 02:21:31;;;;;;;3.78;2.15;;;;;19.90;97492.00;;;;5113997;28;20508;-61
2023/07/25 02:23:58;;;;;;;7.25;2.25;;;;;19.80;97486.00;;;;5114317;28;20096;-61
2023/07/25 02:26:25;;;;;;;2.63;2.00;;;;;19.80;97498.00;;;;5113978;28;20040;-61
2023/07/25 02:28:51;;;;;;;4.25;2.13;;;;;19.80;97490.00;;;;5115234;28;20412;-61
2023/07/25 02:31:18;;;;;;;1.90;1.70;;;;;19.80;97491.00;;;;5114876;28;20467;-61
2023/07/25 02:33:45;;;;;;;3.20;2.15;;;;;19.70;97494.00;;;;5113842;28;20116;-61
2023/07/25 02:36:11;;;;;;;2.10;1.80;;;;;19.60;97485.00;;;;5115420;28;20028;-61
2023/07/25 02:38:39;;;;;;;2.50;1.80;;;;;19.60;97492.00;;;;5113807;28;20607;-61
2023/07/25 02:41:05;;;;;;;3.92;2.20;;;;;19.60;97490.00;;;;5113976;28;20097;-62
2023/07/25 02:43:32;;;;;;;2.38;1.88;;;;;19.50;97490.00;;;;5114900;28;20131;-61
2023/07/25 02:45:58;;;;;;;2.50;2.10;;;;;19.60;97483.00;;;;5114932;28;20067;-61
2023/07/25 02:48:25;;;;;;;3.00;1.98;;;;;19.60;97475.00;;;;5114914;28;20064;-61
2023/07/25 02:50:52;;;;;;;2.90;2.25;;;;;19.70;97480.00;;;;5113354;28;20557;-61
2023/07/25 02:53:18;;;;;;;2.63;2.10;;;;;19.70;97477.00;;;;5113574;28;20083;-61
2023/07/25 02:55:45;;;;;;;4.47;2.10;;;;;19.60;97476.00;;;;5113362;28;20440;-61
2023/07/25 02:58:12;;;;;;;3.22;1.75;;;;;19.60;97468.00;;;;5113669;28;20048;-62
2023/07/25 03:00:40;;;;;;;2.80;2.25;;;;;19.60;97458.00;;;;5113383;28;20042;-61
2023/07/25 03:03:07;;;;;;;2.58;2.05;;;;;19.70;97457.00;;;;5097106;28;20538;-62
2023/07/25 03:05:33;;;;;;;3.15;2.13;;;;;19.60;97449.00;;;;5113495;28;20055;-61
2023/07/25 03:08:00;;;;;;;2.25;1.75;;;;;19.60;97440.00;;;;5113313;28;20043;-62
2023/07/25 03:10:27;;;;;;;6.22;2.08;;;;;19.50;97449.00;;;;5113190;28;20047;-61
2023/07/25 03:12:53;;;;;;;2.22;1.95;;;;;19.50;97448.00;;;;5114406;28;20061;-62
2023/07/25 03:15:20;;;;;;;2.17;1.98;;;;;19.50;97438.00;;;;5114643;28;20126;-62
2023/07/25 03:17:47;;;;;;;3.05;2.10;;;;;19.60;97439.00;;;;5114578;27;20039;-61
2023/07/25 03:20:13;;;;;;;3.10;1.92;;;;;19.50;97433.00;;;;5112913;28;20411;-62
2023/07/25 03:22:40;;;;;;;2.08;1.42;;;;;19.50;97432.00;;;;5114441;28;20061;-60
2023/07/25 03:25:07;;;;;;;2.90;2.05;;;;;19.50;97435.00;;;;5114386;28;20408;-61
2023/07/25 03:27:34;;;;;;;3.85;1.77;;;;;19.40;97430.00;;;;5114232;28;20039;-62
2023/07/25 03:30:01;;;;;;;3.33;2.38;;;;;19.30;97420.00;;;;5114077;28;20123;-62
2023/07/25 03:32:28;;;;;;;3.67;2.13;;;;;19.20;97421.00;;;;5114010;28;20488;-62
2023/07/25 03:34:54;;;;;;;3.97;2.25;;;;;19.20;97419.00;;;;5114050;28;20039;-62
2023/07/25 03:37:21;;;;;;;3.88;2.17;;;;;19.20;97413.00;;;;5114026;28;20040;-61
2023/07/25 03:39:48;;;;;;;2.72;2.03;;;;;19.10;97411.00;;;;5112221;28;20044;-62
2023/07/25 03:42:14;;;;;;;3.25;2.17;;;;;19.10;97410.00;;;;5113812;28;20055;-61
2023/07/25 03:44:41;;;;;;;4.55;2.70;;;;;19.10;97416.00;;;;5112505;28;20047;-61
2023/07/25 03:47:07;;;;;;;3.03;2.30;;;;;19.10;97404.00;;;;5112518;28;20040;-61
2023/07/25 03:49:34;;;;;;;3.30;2.58;;;;;19.10;97403.00;;;;5113433;28;20063;-61
2023/07/25 03:52:00;;;;;;;2.28;2.03;;;;;19.10;97409.00;;;;5095360;28;20081;-61
2023/07/25 03:54:27;;;;;;;2.65;2.10;;;;;19.10;97405.00;;;;5112172;28;20139;-61
2023/07/25 03:56:54;;;;;;;8.40;2.83;;;;;19.10;97405.00;;;;5113639;28;20044;-62
2023/07/25 03:59:20;;;;;;;3.08;2.17;;;;;19.10;97400.00;;;;5113309;28;20086;-62
2023/07/25 04:01:47;;;;;;;1.75;1.65;;;;;19.10;97404.00;;;;5113432;28;20100;-62
2023/07/25 04:04:14;;;;;;;5.68;3.08;;;;;19.10;97398.00;;;;5112305;28;20142;-61
2023/07/25 04:06:40;;;;;;;3.13;2.63;;;;;19.20;97411.00;;;;5111891;28;20093;-61
2023/07/25 04:09:07;;;;;;;3.35;2.03;;;;;19.20;97414.00;;;;5113476;28;20088;-62
2023/07/25 04:11:33;;;;;;;2.63;2.42;;;;;19.30;97407.00;;;;5112045;28;20048;-61
2023/07/25 04:14:00;;;;;;;2.53;1.90;;;;;19.40;97405.00;;;;5113313;28;20583;-61
2023/07/25 04:16:27;;;;;;;2.90;2.05;;;;;19.40;97401.00;;;;5113178;28;20044;-61
2023/07/25 04:18:53;;;;;;;4.43;2.10;;;;;19.40;97390.00;;;;5113101;28;20047;-62
2023/07/25 04:21:20;;;;;;;5.68;2.70;;;;;19.40;97392.00;;;;5112942;28;20067;-61
2023/07/25 04:23:46;;;;;;;2.00;1.80;;;;;19.50;97399.00;;;;5113225;28;20577;-62
2023/07/25 04:26:13;;;;;;;2.20;2.00;;;;;19.40;97397.00;;;;5113085;28;20051;-61
2023/07/25 04:28:39;;;;;;;2.30;2.10;;;;;19.40;97392.00;;;;5094855;28;20044;-62
2023/07/25 04:31:06;;;;;;;3.08;1.85;;;;;19.40;97387.00;;;;5111423;28;20047;-61
2023/07/25 04:33:33;;;;;;;3.28;2.10;;;;;19.40;97384.00;;;;5111465;28;20046;-62
2023/07/25 04:35:59;;;;;;;2.97;2.20;;;;;19.30;97387.00;;;;5112791;28;20425;-61
2023/07/25 04:38:26;;;;;;;4.18;2.15;;;;;19.30;97388.00;;;;5111486;28;20047;-62
2023/07/25 04:40:52;;;;;;;4.38;3.45;;;;;19.40;97385.00;;;;5111422;28;20093;-62
2023/07/25 04:43:20;;;;;;;5.07;2.47;;;;;19.40;97378.00;;;;5111724;28;20051;-62
2023/07/25 04:45:46;;;;;;;3.85;2.20;;;;;19.40;97388.00;;;;5111599;28;20051;-62
2023/07/25 04:48:20;;;;;;;4.47;2.33;;;;;19.40;97400.00;;;;5111556;28;20050;-62
2023/07/25 04:50:46;;;;;;;2.80;2.25;;;;;19.50;97401.00;;;;5112711;28;20436;-61
2023/07/25 04:53:13;;;;;;;4.22;2.13;;;;;19.50;97403.00;;;;5112961;28;20118;-62
2023/07/25 04:55:39;;;;;;;5.50;2.03;;;;;19.50;97402.00;;;;5112602;28;20054;-61
2023/07/25 04:58:06;;;;;;;4.38;2.60;;;;;19.50;97396.00;;;;5112640;28;20504;-61
2023/07/25 05:00:34;;;;;;;7.50;4.78;;;;;19.50;97405.00;;;;5112523;28;20047;-62
2023/07/25 05:03:01;;;;;;;2.90;2.03;;;;;19.50;97410.00;;;;5112444;28;20463;-61
2023/07/25 05:05:27;;;;;;;6.90;3.17;;;;;19.50;97418.00;;;;5111996;28;20047;-61
2023/07/25 05:07:54;;;;;;;2.53;2.05;;;;;19.40;97411.00;;;;5112548;28;20403;-62
2023/07/25 05:10:21;;;;;;;5.13;1.95;;;;;19.40;97414.00;;;;5112365;28;20131;-61
2023/07/25 05:12:47;;;;;;;3.80;2.30;;;;;19.40;97414.00;;;;5112398;28;20055;-61
2023/07/25 05:15:14;;;;;;;2.50;1.92;;;;;19.40;97420.00;;;;5113034;28;20524;-62
2023/07/25 05:17:40;;;;;;;3.35;1.90;;;;;19.50;97427.00;;;;5112390;28;20119;-61
2023/07/25 05:20:07;;;;;;;3.65;2.13;;;;;19.50;97418.00;;;;5112074;28;20404;-61
2023/07/25 05:22:34;;;;;;;4.32;3.00;;;;;19.50;97416.00;;;;5112245;28;20043;-61
2023/07/25 05:25:00;;;;;;;5.07;2.70;;;;;19.50;97419.00;;;;5112189;28;20560;-62
2023/07/25 05:27:27;;;;;;;2.30;1.75;;;;;19.50;97432.00;;;;5112220;28;20046;-61
2023/07/25 05:29:53;;;;;;;3.05;1.95;;;;;19.60;97429.00;;;;5111939;28;20062;-61
2023/07/25 05:32:21;;;;;;;4.15;2.45;;;;;19.70;97426.00;;;;5112139;28;20057;-61
2023/07/25 05:34:48;;;;;;;2.10;1.90;;;;;19.70;97420.00;;;;5112138;28;20062;-61
2023/07/25 05:37:18;;;;;;;8.13;2.33;;;;;19.80;97422.00;;;;5112142;28;20043;-61
2023/07/25 05:39:45;;;;;;;1.75;1.60;;;;;19.80;97421.00;;;;5111904;28;20044;-61
2023/07/25 05:42:46;;;;;;;4.35;2.67;;;;;19.80;97418.00;;;;5111912;28;20385;-61
2023/07/25 05:45:16;;;;;;;3.58;2.67;;;;;19.80;97410.00;;;;5098122;28;20495;-62
2023/07/25 05:47:43;;;;;;;2.45;2.25;;;;;19.80;97412.00;;;;5092101;28;20047;-62
2023/07/25 05:50:10;;;;;;;4.32;1.92;;;;;19.90;97408.00;;;;5093520;28;20043;-61
2023/07/25 05:52:36;;;;;;;5.05;2.80;;;;;19.90;97406.00;;;;5093471;28;20115;-61
2023/07/25 05:55:03;;;;;;;3.03;2.15;;;;;19.90;97404.00;;;;5093403;28;20048;-62
2023/07/25 05:57:30;;;;;;;2.65;1.92;;;;;19.80;97410.00;;;;5093041;28;20044;-61
2023/07/25 05:59:57;;;;;;;2.97;2.10;;;;;19.60;97389.00;;;;5092275;28;20118;-61
2023/07/25 06:02:23;;;;;;;5.03;2.20;;;;;19.60;97391.00;;;;5092439;28;20044;-62
2023/07/25 06:04:50;;;;;;;4.85;2.33;;;;;19.60;97385.00;;;;5092626;28;20080;-61
2023/07/25 06:07:16;;;;;;;5.15;2.40;;;;;19.70;97388.00;;;;5092995;28;20040;-61
2023/07/25 06:09:43;;;;;;;3.80;1.90;;;;;19.90;97385.00;;;;5092595;28;20071;-61
2023/07/25 06:12:13;;;;;;;3.33;2.33;;;;;20.00;97392.00;;;;5092458;28;20135;-61
2023/07/25 06:14:40;;;;;;;9.20;3.25;;;;;19.90;97375.00;;;;5092458;28;20044;-61
2023/07/25 06:17:07;;;;;;;5.60;2.33;;;;;19.80;97368.00;;;;5093765;28;20054;-61
2023/07/25 06:19:33;;;;;;;7.43;3.00;;;;;20.00;97372.00;;;;5077324;28;20160;-61
2023/07/25 06:22:00;;;;;;;4.10;2.47;;;;;20.20;97385.00;;;;5095770;28;20066;-61
2023/07/25 06:24:26;;;;;;;4.55;2.00;;;;;20.20;97381.00;;;;5095799;28;20044;-61
2023/07/25 06:26:53;;;;;;;3.38;2.20;;;;;20.10;97376.00;;;;5095797;28;20047;-61
2023/07/25 06:29:19;;;;;;;3.03;2.10;;;;;20.20;97369.00;;;;5095579;28;20439;-62
2023/07/25 06:31:46;;;;;;;6.03;2.28;;;;;20.50;97378.00;;;;5095716;28;20040;-61
2023/07/25 06:34:13;;;;;;;3.22;1.90;;;;;20.50;97377.00;;;;5095957;28;20067;-61
2023/07/25 06:36:41;;;;;;;3.40;1.92;;;;;20.60;97372.00;;;;5098902;28;20051;-61
2023/07/25 06:39:11;;;;;;;3.00;2.10;;;;;20.60;97377.00;;;;5093148;28;20051;-61
2023/07/25 06:41:37;;;;;;;3.35;2.10;;;;;20.40;97384.00;;;;5094920;28;20049;-61
2023/07/25 06:44:04;;;;;;;3.33;1.95;;;;;20.40;97370.00;;;;5093922;28;20081;-61
2023/07/25 06:46:31;;;;;;;4.97;2.10;;;;;20.30;97380.00;;;;5093571;28;20039;-65
2023/07/25 06:48:57;;;;;;;3.33;2.20;;;;;20.60;97357.00;;;;5093471;28;20050;-64
2023/07/25 06:51:24;;;;;;;3.22;2.22;;;;;20.90;97353.00;;;;5094370;28;20114;-64
2023/07/25 06:53:50;;;;;;;3.10;1.80;;;;;21.10;97350.00;;;;5094511;28;20238;-64
2023/07/25 06:56:17;;;;;;;2.83;1.80;;;;;21.30;97350.00;;;;5094278;28;20408;-64
2023/07/25 06:58:44;;;;;;;2.53;2.05;;;;;21.30;97354.00;;;;5094105;28;20040;-64
2023/07/25 07:01:10;;;;;;;5.18;1.92;;;;;21.20;97351.00;;;;5093915;28;20056;-65
2023/07/25 07:03:37;;;;;;;2.83;2.20;;;;;21.00;97356.00;;;;5094252;28;20621;-65
2023/07/25 07:06:03;;;;;;;2.55;1.90;;;;;21.00;97346.00;;;;5093141;28;20483;-65
2023/07/25 07:08:30;;;;;;;2.72;1.90;;;;;21.30;97341.00;;;;5094576;28;20068;-65
2023/07/25 07:10:56;;;;;;;3.13;1.75;;;;;21.30;97342.00;;;;5092971;28;20050;-65
2023/07/25 07:13:23;;;;;;;2.95;1.92;;;;;21.20;97344.00;;;;5093139;28;20117;-65
2023/07/25 07:15:50;;;;;;;3.05;1.83;;;;;21.20;97336.00;;;;5075938;28;20052;-65
2023/07/25 07:18:17;;;;;;;3.20;1.92;;;;;21.20;97333.00;;;;5093887;28;20060;-64
2023/07/25 07:20:48;;;;;;;3.53;1.52;;;;;21.30;97320.00;;;;5092552;28;20051;-64
2023/07/25 07:23:15;;;;;;;2.83;1.98;;;;;21.40;97322.00;;;;5093864;28;20040;-64
2023/07/25 07:25:43;;;;;;;2.28;1.83;;;;;21.50;97328.00;;;;5093823;28;20404;-64
2023/07/25 07:28:10;;;;;;;2.72;1.85;;;;;21.50;97330.00;;;;5093384;28;20426;-64
2023/07/25 07:30:36;;;;;;;2.13;1.58;;;;;21.40;97330.00;;;;5093685;28;20044;-64
2023/07/25 07:33:04;;;;;;;3.15;2.10;;;;;21.20;97334.00;;;;5093579;28;20499;-64
2023/07/25 07:35:30;;;;;;;4.25;1.77;;;;;21.20;97321.00;;;;5092428;28;20139;-63
2023/07/25 07:37:57;;;;;;;2.05;1.77;;;;;21.20;97320.00;;;;5093730;28;20040;-64
2023/07/25 07:40:24;;;;;;;2.13;1.70;;;;;21.20;97322.00;;;;5093429;28;20056;-64
2023/07/25 07:42:51;;;;;;;2.97;2.40;;;;;21.40;97318.00;;;;5093594;28;20119;-64
2023/07/25 07:45:17;;;;;;;4.70;2.60;;;;;21.60;97312.00;;;;5093499;28;20074;-64
2023/07/25 07:47:44;;;;;;;4.95;1.98;;;;;21.80;97321.00;;;;5093302;28;20072;-64
2023/07/25 07:50:11;;;;;;;6.20;2.17;;;;;21.90;97309.00;;;;5093196;28;20047;-64
2023/07/25 07:52:41;;;;;;;3.53;1.73;;;;;22.00;97308.00;;;;5093449;28;20408;-64
2023/07/25 07:55:11;;;;;;;2.70;1.60;;;;;22.10;97319.00;;;;5093251;28;20068;-64
2023/07/25 07:57:39;;;;;;;2.67;1.70;;;;;22.20;97318.00;;;;5093411;28;20036;-63
2023/07/25 08:00:07;;;;;;;3.05;1.45;;;;;22.30;97323.00;;;;5093046;28;20373;-64
2023/07/25 08:02:37;;;;;;;2.45;1.70;;;;;22.10;97327.00;;;;5093242;28;20052;-63
2023/07/25 08:05:04;;;;;;;2.00;1.63;;;;;22.00;97331.00;;;;5092941;28;20094;-63
2023/07/25 08:07:30;;;;;;;2.65;1.70;;;;;21.70;97337.00;;;;5093130;28;20466;-64
2023/07/25 08:09:57;;;;;;;3.55;1.60;;;;;21.50;97346.00;;;;5092914;28;20459;-63
2023/07/25 08:12:24;;;;;;;3.08;1.77;;;;;21.20;97361.00;;;;5091716;28;20076;-63
2023/07/25 08:14:51;;;;;;;5.75;1.25;;;;;20.80;97376.00;;;;5091684;28;20139;-63
2023/07/25 08:17:18;;;;;;;1.13;0.80;;;;;20.20;97394.00;;;;5092940;28;20093;-63
2023/07/25 08:19:45;;;;;;;2.40;1.08;;;;;19.70;97391.00;;;;5092705;28;20477;-63
2023/07/25 08:22:11;;;;;;;2.60;0.93;;;;;19.40;97412.00;;;;5091445;28;20134;-63
2023/07/25 08:24:39;;;;;;;2.08;0.80;;;;;19.10;97441.00;;;;5092716;28;20449;-62
2023/07/25 08:27:06;;;;;;;3.55;1.10;;;;;19.00;97427.00;;;;5091514;28;20416;-62
2023/07/25 08:29:37;;;;;;;3.25;1.00;;;;;18.80;97417.00;;;;5092547;28;20400;-63
2023/07/25 08:32:04;;;;;;;2.83;0.68;;;;;18.30;97412.00;;;;5074759;28;20071;-62
2023/07/25 08:34:31;;;;;;;3.22;0.60;;;;;18.10;97415.00;;;;5092735;28;20036;-64
2023/07/25 08:36:58;;;;;;;0.88;0.50;;;;;18.00;97435.00;;;;5091707;28;20408;-62
2023/07/25 08:39:24;;;;;;;3.20;1.17;;;;;17.90;97424.00;;;;5091488;28;20189;-62
2023/07/25 08:41:53;;;;;;;1.88;0.68;;;;;17.80;97417.00;;;;5091418;28;20083;-63
2023/07/25 08:44:20;;;;;;;1.48;1.00;;;;;17.70;97405.00;;;;5074619;28;20093;-62
2023/07/25 08:46:50;;;;;;;1.73;1.00;;;;;17.60;97410.00;;;;5091639;28;20087;-63
2023/07/25 08:49:25;;;;;;;1.30;0.95;;;;;17.70;97411.00;;;;5092501;28;20047;-63
2023/07/25 08:51:54;;;;;;;1.70;1.45;;;;;18.10;97420.00;;;;5091240;28;20044;-64
2023/07/25 08:54:31;;;;;;;2.08;1.05;;;;;18.60;97429.00;;;;5092410;28;20417;-63
2023/07/25 08:56:58;;;;;;;0.90;0.90;;;;;19.00;97445.00;;;;5091058;28;20378;-63
2023/07/25 08:59:26;;;;;;;2.22;1.10;;;;;19.40;97435.00;;;;5091052;28;20075;-63
2023/07/25 09:01:54;;;;;;;1.95;0.82;;;;;19.70;97446.00;;;;5090895;28;20047;-63
2023/07/25 09:04:23;;;;;;;3.22;1.30;;;;;19.90;97446.00;;;;5092211;28;20486;-63
2023/07/25 09:06:50;;;;;;;3.25;1.70;;;;;19.90;97458.00;;;;5092432;28;20093;-63
2023/07/25 09:09:17;;;;;;;1.05;1.00;;;;;19.90;97459.00;;;;5073797;28;20079;-63
2023/07/25 09:11:44;;;;;;;1.70;1.27;;;;;19.90;97458.00;;;;5090745;28;20504;-63
2023/07/25 09:14:14;;;;;;;1.75;1.65;;;;;19.70;97456.00;;;;5092041;28;20040;-63
2023/07/25 09:16:41;;;;;;;1.27;1.15;;;;;19.30;97446.00;;;;5092034;28;20044;-62
2023/07/25 09:19:08;;;;;;;0.80;0.80;;;;;19.20;97449.00;;;;5091719;28;20085;-63
2023/07/25 09:21:53;;;;;;;1.63;1.27;;;;;19.10;97443.00;;;;5091658;28;20106;-63
2023/07/25 09:24:20;;;;;;;2.08;1.48;;;;;19.10;97450.00;;;;5091935;28;20043;-63
2023/07/25 09:26:50;;;;;;;3.25;1.48;;;;;19.10;97460.00;;;;5091983;28;20044;-63
2023/07/25 09:29:18;;;;;;;2.10;1.40;;;;;19.10;97471.00;;;;5090420;28;20435;-63
2023/07/25 09:31:46;;;;;;;1.73;1.40;;;;;19.20;97484.00;;;;5091964;28;20548;-63
2023/07/25 09:34:17;;;;;;;1.13;1.02;;;;;19.20;97482.00;;;;5091896;28;20500;-63
2023/07/25 09:36:46;;;;;;;1.45;1.33;;;;;19.30;97479.00;;;;5092066;28;20544;-65
2023/07/25 09:39:13;;;;;;;1.80;1.23;;;;;19.40;97484.00;;;;5090508;28;20117;-63
2023/07/25 09:41:40;;;;;;;1.40;1.30;;;;;19.50;97476.00;;;;5091859;28;20105;-63
2023/07/25 09:44:08;;;;;;;1.50;1.40;;;;;19.60;97474.00;;;;5091942;28;20048;-63
2023/07/25 09:46:35;;;;;;;2.17;1.40;;;;;19.70;97469.00;;;;5090508;28;20091;-63
2023/07/25 09:49:02;;;;;;;2.00;1.90;;;;;19.90;97469.00;;;;5090439;28;20048;-63
2023/07/25 09:51:29;;;;;;;1.42;1.33;;;;;20.30;97459.00;;;;5094635;28;20044;-63
2023/07/25 09:53:57;;;;;;;1.35;1.25;;;;;20.50;97469.00;;;;5094770;28;20052;-63
2023/07/25 09:56:26;;;;;;;1.55;1.45;;;;;20.70;97463.00;;;;5094267;28;20048;-63
2023/07/25 09:58:53;;;;;;;2.63;1.70;;;;;20.90;97468.00;;;;5095598;28;20040;-63
2023/07/25 10:01:35;;;;;;;1.70;1.60;;;;;21.20;97473.00;;;;5094257;28;20044;-63
2023/07/25 10:04:03;;;;;;;1.77;1.50;;;;;21.40;97472.00;;;;5095624;28;20044;-64
2023/07/25 10:06:31;;;;;;;1.60;1.48;;;;;21.50;97470.00;;;;5094532;28;20130;-62
2023/07/25 10:08:58;;;;;;;2.30;1.33;;;;;21.50;97475.00;;;;5095312;28;20120;-63
2023/07/25 10:11:25;;;;;;;1.67;1.58;;;;;21.40;97471.00;;;;5076955;28;20080;-64
2023/07/25 10:13:52;;;;;;;1.60;1.50;;;;;21.30;97469.00;;;;5095451;28;20116;-63
2023/07/25 10:16:21;;;;;;;1.42;1.33;;;;;21.30;97470.00;;;;5095231;28;20051;-64
2023/07/25 10:18:57;;;;;;;2.45;1.75;;;;;21.30;97471.00;;;;5095119;28;20127;-63
2023/07/25 10:21:44;;;;;;;1.95;1.75;;;;;21.50;97468.00;;;;5095189;28;20052;-64
2023/07/25 10:24:12;;;;;;;2.10;1.88;;;;;21.70;97464.00;;;;5095212;28;20131;-64
2023/07/25 10:26:58;;;;;;;1.90;1.80;;;;;22.00;97465.00;;;;5096339;28;20510;-63
2023/07/25 10:29:40;;;;;;;2.05;1.83;;;;;22.30;97474.00;;;;5094821;28;20125;-64
2023/07/25 10:32:08;;;;;;;1.50;1.40;;;;;22.30;97476.00;;;;5094039;28;20052;-64
2023/07/25 10:34:51;;;;;;;2.10;2.00;;;;;22.50;97468.00;;;;5093815;28;20051;-63
2023/07/25 10:37:28;;;;;;;1.65;1.55;;;;;22.80;97481.00;;;;5095236;28;20072;-63
2023/07/25 10:40:10;;;;;;;1.83;1.73;;;;;22.50;97482.00;;;;5094749;28;20040;-63
2023/07/25 10:42:44;;;;;;;1.95;1.77;;;;;22.30;97492.00;;;;5093642;28;20143;-63
2023/07/25 10:45:33;;;;;;;1.70;1.60;;;;;21.90;97493.00;;;;5093781;28;20048;-63
2023/07/25 10:48:00;;;;;;;1.98;1.77;;;;;21.90;97492.00;;;;5094674;28;20051;-64
2023/07/25 10:50:47;;;;;;;2.47;2.20;;;;;22.00;97488.00;;;;5094556;28;20040;-64
2023/07/25 10:53:15;;;;;;;1.80;1.70;;;;;22.20;97490.00;;;;5083110;28;20105;-63
2023/07/25 10:56:03;;;;;;;2.50;2.30;;;;;22.50;97498.00;;;;5094577;28;20063;-63
2023/07/25 10:58:37;;;;;;;2.40;2.20;;;;;22.50;97495.00;;;;5093624;28;20054;-63
2023/07/25 11:01:05;;;;;;;2.20;2.00;;;;;22.60;97498.00;;;;5093153;28;20063;-63
2023/07/25 11:03:36;;;;;;;3.30;2.40;;;;;22.50;97493.00;;;;5092313;28;20048;-63
2023/07/25 11:06:08;;;;;;;2.95;2.25;;;;;22.30;97496.00;;;;5094373;28;20076;-63
2023/07/25 11:08:40;;;;;;;4.43;2.47;;;;;22.30;97493.00;;;;5094550;28;20074;-63
2023/07/25 11:11:09;;;;;;;2.90;2.40;;;;;22.60;97487.00;;;;5093002;28;20123;-63
2023/07/25 11:13:37;;;;;;;2.45;2.25;;;;;22.50;97494.00;;;;5094442;28;20408;-64
2023/07/25 11:16:06;;;;;;;2.47;2.28;;;;;22.50;97495.00;;;;5094216;28;20048;-64
2023/07/25 11:18:37;;;;;;;3.83;2.67;;;;;22.60;97495.00;;;;5076498;28;20044;-64
2023/07/25 11:21:06;;;;;;;2.40;2.20;;;;;22.50;97499.00;;;;5094142;28;20050;-64
2023/07/25 11:23:34;;;;;;;2.53;2.30;;;;;22.30;97502.00;;;;5094071;28;20048;-64
2023/07/25 11:26:03;;;;;;;3.45;2.63;;;;;22.20;97497.00;;;;5094075;28;20040;-63
2023/07/25 11:28:29;;;;;;;2.97;2.63;;;;;21.90;97505.00;;;;5092876;28;20465;-63
2023/07/25 11:30:56;;;;;;;3.03;2.72;;;;;21.60;97516.00;;;;5092567;28;20055;-63
2023/07/25 11:33:23;;;;;;;3.33;3.03;;;;;21.60;97514.00;;;;5093952;28;20488;-64
2023/07/25 11:35:54;;;;;;;3.25;2.40;;;;;21.70;97511.00;;;;5093873;28;20046;-64
2023/07/25 11:38:21;;;;;;;3.13;2.78;;;;;21.80;97513.00;;;;5094098;28;20131;-64
2023/07/25 11:40:53;;;;;;;3.00;2.65;;;;;22.10;97510.00;;;;5094089;28;20050;-64
2023/07/25 11:43:20;;;;;;;4.55;2.90;;;;;22.10;97525.00;;;;5092486;28;20105;-64
2023/07/25 11:45:48;;;;;;;3.47;2.95;;;;;22.00;97527.00;;;;5092565;28;20484;-64
2023/07/25 11:48:18;;;;;;;2.83;2.63;;;;;22.00;97535.00;;;;5092316;28;20075;-65
2023/07/25 11:50:48;;;;;;;3.40;3.10;;;;;22.00;97542.00;;;;5093404;28;20046;-64
2023/07/25 11:53:21;;;;;;;2.92;2.72;;;;;22.00;97532.00;;;;5093753;28;20109;-64
2023/07/25 11:55:50;;;;;;;3.85;2.70;;;;;21.90;97527.00;;;;5092238;28;20423;-64
2023/07/25 11:58:22;;;;;;;4.25;2.80;;;;;21.70;97526.00;;;;5075484;28;20047;-64
2023/07/25 12:00:51;;;;;;;2.83;2.50;;;;;21.60;97532.00;;;;5092117;28;20050;-65
2023/07/25 12:03:19;;;;;;;3.30;3.00;;;;;21.50;97543.00;;;;5092280;28;20135;-64
2023/07/25 12:05:54;;;;;;;3.50;2.90;;;;;21.60;97540.00;;;;5093326;28;20040;-64
2023/07/25 12:08:35;;;;;;;4.45;2.80;;;;;21.80;97536.00;;;;5093156;28;20044;-64
2023/07/25 12:11:07;;;;;;;2.35;2.15;;;;;21.90;97534.00;;;;5092979;28;20040;-64
2023/07/25 12:13:52;;;;;;;2.67;2.30;;;;;21.90;97537.00;;;;5092248;28;20044;-64
2023/07/25 12:16:35;;;;;;;4.03;2.90;;;;;21.80;97539.00;;;;5093105;28;20122;-64
2023/07/25 12:19:08;;;;;;;3.10;2.80;;;;;21.80;97540.00;;;;5093052;28;20409;-64
2023/07/25 12:21:37;;;;;;;2.60;2.40;;;;;21.90;97544.00;;;;5093104;28;20044;-64
2023/07/25 12:24:08;;;;;;;3.00;2.65;;;;;21.80;97545.00;;;;5093483;28;20282;-64